sensor_id;sensor_type;location;lat;lon;timestamp;pressure;altitude;pressure_sealevel;temperature;humidity
47556;BME280;33291;46.222;26.460;2023-05-11T00:01:04;97078.34;;;5.81;95.45
47556;BME280;33291;46.222;26.460;2023-05-11T00:03:30;97078.53;;;5.78;95.62
47556;BME280;33291;46.222;26.460;2023-05-11T00:05:56;97074.69;;;5.71;96.00
47556;BME280;33291;46.222;26.460;2023-05-11T00:08:22;97079.78;;;5.73;95.61
47556;BME280;33291;46.222;26.460;2023-05-11T00:10:47;97077.38;;;5.69;95.54
47556;BME280;33291;46.222;26.460;2023-05-11T00:13:13;97077.75;;;5.63;96.54
47556;BME280;33291;46.222;26.460;2023-05-11T00:15:39;97085.59;;;5.62;96.29
47556;BME280;33291;46.222;26.460;2023-05-11T00:18:04;97051.84;;;5.36;96.27
47556;BME280;33291;46.222;26.460;2023-05-11T00:20:30;97056.25;;;5.34;96.54
47556;BME280;33291;46.222;26.460;2023-05-11T00:22:55;97086.13;;;5.52;96.68
47556;BME280;33291;46.222;26.460;2023-05-11T00:25:20;97090.47;;;5.52;96.65
47556;BME280;33291;46.222;26.460;2023-05-11T00:27:46;97081.16;;;5.49;96.26
47556;BME280;33291;46.222;26.460;2023-05-11T00:30:12;97091.13;;;5.56;96.12
47556;BME280;33291;46.222;26.460;2023-05-11T00:32:40;97092.97;;;5.54;96.36
47556;BME280;33291;46.222;26.460;2023-05-11T00:35:05;97079.69;;;5.45;96.28
47556;BME280;33291;46.222;26.460;2023-05-11T00:37:31;97083.91;;;5.46;96.21
47556;BME280;33291;46.222;26.460;2023-05-11T00:39:57;97093.44;;;5.46;95.95
47556;BME280;33291;46.222;26.460;2023-05-11T00:42:22;97093.63;;;5.43;95.69
47556;BME280;33291;46.222;26.460;2023-05-11T00:44:47;97088.75;;;5.38;95.76
47556;BME280;33291;46.222;26.460;2023-05-11T00:47:13;97087.91;;;5.38;95.90
47556;BME280;33291;46.222;26.460;2023-05-11T00:49:39;97082.25;;;5.31;95.46
47556;BME280;33291;46.222;26.460;2023-05-11T00:52:04;97078.56;;;5.21;95.62
47556;BME280;33291;46.222;26.460;2023-05-11T00:54:30;97096.31;;;5.27;95.33
47556;BME280;33291;46.222;26.460;2023-05-11T00:56:56;97090.75;;;5.19;95.66
47556;BME280;33291;46.222;26.460;2023-05-11T00:59:22;97086.50;;;5.18;95.68
47556;BME280;33291;46.222;26.460;2023-05-11T01:01:48;97077.09;;;5.16;95.47
47556;BME280;33291;46.222;26.460;2023-05-11T01:04:14;97091.03;;;5.14;95.36
47556;BME280;33291;46.222;26.460;2023-05-11T01:14:44;97089.06;;;5.03;94.96
47556;BME280;33291;46.222;26.460;2023-05-11T01:17:21;97081.69;;;4.97;95.08
47556;BME280;33291;46.222;26.460;2023-05-11T01:19:54;97075.22;;;4.90;94.83
47556;BME280;33291;46.222;26.460;2023-05-11T01:22:30;97078.78;;;4.87;94.90
47556;BME280;33291;46.222;26.460;2023-05-11T01:30:47;97082.34;;;4.70;95.72
47556;BME280;33291;46.222;26.460;2023-05-11T01:33:14;97085.03;;;4.69;95.93
47556;BME280;33291;46.222;26.460;2023-05-11T01:35:45;97074.75;;;4.53;95.72
47556;BME280;33291;46.222;26.460;2023-05-11T01:38:14;97083.25;;;4.55;95.62
47556;BME280;33291;46.222;26.460;2023-05-11T01:40:43;97079.06;;;4.52;95.50
47556;BME280;33291;46.222;26.460;2023-05-11T01:43:18;97086.16;;;4.49;95.35
47556;BME280;33291;46.222;26.460;2023-05-11T01:45:46;97076.84;;;4.46;95.52
47556;BME280;33291;46.222;26.460;2023-05-11T01:48:18;97088.56;;;4.52;95.75
47556;BME280;33291;46.222;26.460;2023-05-11T01:50:46;97090.25;;;4.53;95.69
47556;BME280;33291;46.222;26.460;2023-05-11T01:53:14;97078.59;;;4.45;95.26
47556;BME280;33291;46.222;26.460;2023-05-11T01:55:42;97081.44;;;4.41;95.13
47556;BME280;33291;46.222;26.460;2023-05-11T01:58:12;97080.97;;;4.34;94.96
47556;BME280;33291;46.222;26.460;2023-05-11T02:00:40;97095.34;;;4.38;95.69
47556;BME280;33291;46.222;26.460;2023-05-11T02:03:07;97087.19;;;4.30;95.52
47556;BME280;33291;46.222;26.460;2023-05-11T02:05:34;97086.44;;;4.28;95.67
47556;BME280;33291;46.222;26.460;2023-05-11T02:08:01;97093.28;;;4.29;95.44
47556;BME280;33291;46.222;26.460;2023-05-11T02:10:28;97084.13;;;4.23;95.21
47556;BME280;33291;46.222;26.460;2023-05-11T02:12:54;97097.84;;;4.24;95.21
47556;BME280;33291;46.222;26.460;2023-05-11T02:15:21;97080.50;;;4.12;95.48
47556;BME280;33291;46.222;26.460;2023-05-11T02:17:49;97091.63;;;4.12;95.33
47556;BME280;33291;46.222;26.460;2023-05-11T02:20:16;97089.31;;;4.07;95.37
47556;BME280;33291;46.222;26.460;2023-05-11T02:22:43;97086.88;;;4.04;95.22
47556;BME280;33291;46.222;26.460;2023-05-11T02:25:10;97092.31;;;4.00;95.15
47556;BME280;33291;46.222;26.460;2023-05-11T02:27:36;97088.78;;;4.01;95.68
47556;BME280;33291;46.222;26.460;2023-05-11T02:30:03;97088.38;;;3.92;95.35
47556;BME280;33291;46.222;26.460;2023-05-11T02:32:32;97092.72;;;3.92;95.80
47556;BME280;33291;46.222;26.460;2023-05-11T02:35:00;97085.72;;;3.94;95.58
47556;BME280;33291;46.222;26.460;2023-05-11T02:37:29;97083.16;;;3.94;95.53
47556;BME280;33291;46.222;26.460;2023-05-11T02:40:01;97089.13;;;3.95;95.77
47556;BME280;33291;46.222;26.460;2023-05-11T02:42:29;97095.28;;;3.92;95.49
47556;BME280;33291;46.222;26.460;2023-05-11T02:45:00;97094.28;;;3.95;95.60
47556;BME280;33291;46.222;26.460;2023-05-11T02:47:30;97090.13;;;3.92;95.35
47556;BME280;33291;46.222;26.460;2023-05-11T02:49:58;97104.59;;;3.95;95.52
47556;BME280;33291;46.222;26.460;2023-05-11T02:52:27;97091.38;;;3.85;95.70
47556;BME280;33291;46.222;26.460;2023-05-11T02:54:53;97098.94;;;3.88;95.55
47556;BME280;33291;46.222;26.460;2023-05-11T02:57:21;97094.69;;;3.87;95.47
47556;BME280;33291;46.222;26.460;2023-05-11T02:59:47;97112.56;;;3.90;95.13
47556;BME280;33291;46.222;26.460;2023-05-11T03:02:13;97109.50;;;3.83;94.85
47556;BME280;33291;46.222;26.460;2023-05-11T03:04:39;97110.41;;;3.82;95.20
47556;BME280;33291;46.222;26.460;2023-05-11T03:07:05;97102.75;;;3.81;95.13
47556;BME280;33291;46.222;26.460;2023-05-11T03:09:33;97106.09;;;3.83;95.25
47556;BME280;33291;46.222;26.460;2023-05-11T03:11:59;97111.00;;;3.87;95.38
47556;BME280;33291;46.222;26.460;2023-05-11T03:14:26;97111.75;;;3.89;94.92
47556;BME280;33291;46.222;26.460;2023-05-11T03:16:52;97113.66;;;3.86;94.71
47556;BME280;33291;46.222;26.460;2023-05-11T03:19:19;97117.31;;;3.82;94.51
47556;BME280;33291;46.222;26.460;2023-05-11T03:21:46;97083.28;;;3.59;94.91
47556;BME280;33291;46.222;26.460;2023-05-11T03:24:12;97116.81;;;3.75;94.67
47556;BME280;33291;46.222;26.460;2023-05-11T03:26:39;97118.53;;;3.74;94.99
47556;BME280;33291;46.222;26.460;2023-05-11T03:29:06;97114.41;;;3.72;95.12
47556;BME280;33291;46.222;26.460;2023-05-11T03:31:32;97115.72;;;3.79;95.19
47556;BME280;33291;46.222;26.460;2023-05-11T03:33:58;97112.25;;;3.80;95.33
47556;BME280;33291;46.222;26.460;2023-05-11T03:36:24;97113.06;;;3.81;95.16
47556;BME280;33291;46.222;26.460;2023-05-11T03:38:52;97107.16;;;3.79;95.25
47556;BME280;33291;46.222;26.460;2023-05-11T03:41:18;97112.81;;;3.85;94.88
47556;BME280;33291;46.222;26.460;2023-05-11T03:43:46;97119.72;;;3.85;94.93
47556;BME280;33291;46.222;26.460;2023-05-11T03:46:17;97121.72;;;3.80;95.53
47556;BME280;33291;46.222;26.460;2023-05-11T03:48:44;97122.56;;;3.80;95.44
47556;BME280;33291;46.222;26.460;2023-05-11T03:51:10;97118.06;;;3.84;95.04
47556;BME280;33291;46.222;26.460;2023-05-11T03:53:37;97121.41;;;3.86;95.24
47556;BME280;33291;46.222;26.460;2023-05-11T03:56:03;97122.88;;;3.90;94.67
47556;BME280;33291;46.222;26.460;2023-05-11T03:58:30;97116.16;;;3.87;95.09
47556;BME280;33291;46.222;26.460;2023-05-11T04:00:56;97121.88;;;3.92;95.05
47556;BME280;33291;46.222;26.460;2023-05-11T04:03:21;97123.56;;;3.94;95.37
47556;BME280;33291;46.222;26.460;2023-05-11T04:05:46;97098.38;;;3.83;95.09
47556;BME280;33291;46.222;26.460;2023-05-11T04:08:12;97130.13;;;3.99;95.16
47556;BME280;33291;46.222;26.460;2023-05-11T04:10:38;97124.97;;;3.99;95.49
47556;BME280;33291;46.222;26.460;2023-05-11T04:13:03;97130.72;;;4.04;95.12
47556;BME280;33291;46.222;26.460;2023-05-11T04:15:29;97122.72;;;4.09;95.26
47556;BME280;33291;46.222;26.460;2023-05-11T04:17:54;97122.31;;;4.17;95.19
47556;BME280;33291;46.222;26.460;2023-05-11T04:20:20;97130.53;;;4.23;94.84
47556;BME280;33291;46.222;26.460;2023-05-11T04:22:45;97118.25;;;4.29;94.94
47556;BME280;33291;46.222;26.460;2023-05-11T04:25:11;97120.47;;;4.35;94.99
47556;BME280;33291;46.222;26.460;2023-05-11T04:27:38;97122.88;;;4.38;94.84
47556;BME280;33291;46.222;26.460;2023-05-11T04:30:04;97129.19;;;4.48;94.86
47556;BME280;33291;46.222;26.460;2023-05-11T04:32:30;97124.53;;;4.55;94.70
47556;BME280;33291;46.222;26.460;2023-05-11T04:34:55;97097.75;;;4.41;95.07
47556;BME280;33291;46.222;26.460;2023-05-11T04:37:21;97118.28;;;4.59;94.71
47556;BME280;33291;46.222;26.460;2023-05-11T04:39:46;97124.75;;;4.66;95.11
47556;BME280;33291;46.222;26.460;2023-05-11T04:42:11;97131.97;;;4.75;95.17
47556;BME280;33291;46.222;26.460;2023-05-11T04:44:37;97128.28;;;4.79;94.82
47556;BME280;33291;46.222;26.460;2023-05-11T04:47:03;97127.28;;;4.82;94.86
47556;BME280;33291;46.222;26.460;2023-05-11T04:49:29;97137.72;;;4.95;94.57
47556;BME280;33291;46.222;26.460;2023-05-11T04:51:54;97134.06;;;4.99;94.68
47556;BME280;33291;46.222;26.460;2023-05-11T04:54:20;97121.72;;;5.04;94.27
47556;BME280;33291;46.222;26.460;2023-05-11T04:56:45;97127.34;;;5.11;94.06
47556;BME280;33291;46.222;26.460;2023-05-11T04:59:11;97129.59;;;5.17;94.11
47556;BME280;33291;46.222;26.460;2023-05-11T05:01:36;97128.13;;;5.27;93.94
47556;BME280;33291;46.222;26.460;2023-05-11T05:04:02;97141.03;;;5.42;93.63
47556;BME280;33291;46.222;26.460;2023-05-11T05:06:27;97142.34;;;5.49;93.47
47556;BME280;33291;46.222;26.460;2023-05-11T05:08:53;97131.66;;;5.55;93.58
47556;BME280;33291;46.222;26.460;2023-05-11T05:11:18;97134.53;;;5.65;93.48
47556;BME280;33291;46.222;26.460;2023-05-11T05:13:44;97134.97;;;5.72;93.93
47556;BME280;33291;46.222;26.460;2023-05-11T05:16:09;97122.59;;;5.77;93.85
47556;BME280;33291;46.222;26.460;2023-05-11T05:18:35;97118.16;;;5.79;93.44
47556;BME280;33291;46.222;26.460;2023-05-11T05:21:01;97131.91;;;5.94;93.58
47556;BME280;33291;46.222;26.460;2023-05-11T05:23:26;97125.53;;;5.99;93.43
47556;BME280;33291;46.222;26.460;2023-05-11T05:25:52;97129.13;;;6.11;92.85
47556;BME280;33291;46.222;26.460;2023-05-11T05:28:17;97125.06;;;6.21;92.31
47556;BME280;33291;46.222;26.460;2023-05-11T05:30:43;97131.31;;;6.32;92.58
47556;BME280;33291;46.222;26.460;2023-05-11T05:33:08;97134.88;;;6.44;92.25
47556;BME280;33291;46.222;26.460;2023-05-11T05:35:34;97118.13;;;6.49;92.05
47556;BME280;33291;46.222;26.460;2023-05-11T05:37:59;97127.47;;;6.65;91.65
47556;BME280;33291;46.222;26.460;2023-05-11T05:40:24;97124.09;;;6.77;91.71
47556;BME280;33291;46.222;26.460;2023-05-11T05:42:50;97127.34;;;6.93;90.96
47556;BME280;33291;46.222;26.460;2023-05-11T05:45:15;97113.59;;;7.06;89.91
47556;BME280;33291;46.222;26.460;2023-05-11T05:47:41;97124.38;;;7.25;89.03
47556;BME280;33291;46.222;26.460;2023-05-11T05:50:07;97112.06;;;7.42;88.35
47556;BME280;33291;46.222;26.460;2023-05-11T05:52:32;97114.34;;;7.59;86.99
47556;BME280;33291;46.222;26.460;2023-05-11T05:54:58;97114.00;;;7.77;85.89
47556;BME280;33291;46.222;26.460;2023-05-11T05:57:23;97118.88;;;7.94;85.70
47556;BME280;33291;46.222;26.460;2023-05-11T05:59:49;97107.72;;;8.05;85.03
47556;BME280;33291;46.222;26.460;2023-05-11T06:02:14;97114.19;;;8.24;84.55
47556;BME280;33291;46.222;26.460;2023-05-11T06:04:40;97126.72;;;8.43;83.50
47556;BME280;33291;46.222;26.460;2023-05-11T06:07:06;97098.91;;;8.45;83.25
47556;BME280;33291;46.222;26.460;2023-05-11T06:09:32;97111.97;;;8.67;82.83
47556;BME280;33291;46.222;26.460;2023-05-11T06:11:57;97110.63;;;8.86;82.37
47556;BME280;33291;46.222;26.460;2023-05-11T06:14:22;97115.66;;;9.00;82.13
47556;BME280;33291;46.222;26.460;2023-05-11T06:16:48;97110.69;;;9.09;81.62
47556;BME280;33291;46.222;26.460;2023-05-11T06:19:14;97104.56;;;9.21;80.48
47556;BME280;33291;46.222;26.460;2023-05-11T06:21:40;97119.25;;;9.33;79.60
47556;BME280;33291;46.222;26.460;2023-05-11T06:24:07;97099.66;;;9.40;78.37
47556;BME280;33291;46.222;26.460;2023-05-11T06:26:32;97103.91;;;9.53;78.00
47556;BME280;33291;46.222;26.460;2023-05-11T06:28:58;97099.78;;;9.62;76.84
47556;BME280;33291;46.222;26.460;2023-05-11T06:31:23;97100.00;;;9.70;75.13
47556;BME280;33291;46.222;26.460;2023-05-11T06:33:49;97102.97;;;9.88;75.01
47556;BME280;33291;46.222;26.460;2023-05-11T06:36:14;97100.34;;;9.99;74.17
47556;BME280;33291;46.222;26.460;2023-05-11T06:38:40;97100.44;;;10.09;73.94
47556;BME280;33291;46.222;26.460;2023-05-11T06:41:05;97098.88;;;10.29;73.15
47556;BME280;33291;46.222;26.460;2023-05-11T06:43:32;97102.56;;;10.38;71.81
47556;BME280;33291;46.222;26.460;2023-05-11T06:45:57;97093.19;;;10.46;71.38
47556;BME280;33291;46.222;26.460;2023-05-11T06:48:23;97099.19;;;10.58;70.92
47556;BME280;33291;46.222;26.460;2023-05-11T06:50:50;97093.66;;;10.73;70.13
47556;BME280;33291;46.222;26.460;2023-05-11T06:53:16;97092.53;;;10.87;68.30
47556;BME280;33291;46.222;26.460;2023-05-11T06:55:42;97092.94;;;11.03;65.93
47556;BME280;33291;46.222;26.460;2023-05-11T06:58:08;97090.38;;;11.13;65.92
47556;BME280;33291;46.222;26.460;2023-05-11T07:00:33;97087.63;;;11.14;65.80
47556;BME280;33291;46.222;26.460;2023-05-11T07:02:59;97085.22;;;11.23;66.14
47556;BME280;33291;46.222;26.460;2023-05-11T07:05:24;97079.63;;;11.27;66.15
47556;BME280;33291;46.222;26.460;2023-05-11T07:07:50;97081.06;;;11.41;66.20
47556;BME280;33291;46.222;26.460;2023-05-11T07:10:16;97050.97;;;11.37;64.94
47556;BME280;33291;46.222;26.460;2023-05-11T07:12:41;97089.28;;;11.67;64.40
47556;BME280;33291;46.222;26.460;2023-05-11T07:15:07;97073.94;;;11.74;63.26
47556;BME280;33291;46.222;26.460;2023-05-11T07:17:33;97081.78;;;11.84;62.54
47556;BME280;33291;46.222;26.460;2023-05-11T07:19:58;97085.44;;;11.93;62.31
47556;BME280;33291;46.222;26.460;2023-05-11T07:22:24;97089.72;;;12.03;62.41
47556;BME280;33291;46.222;26.460;2023-05-11T07:24:49;97090.31;;;12.17;60.13
47556;BME280;33291;46.222;26.460;2023-05-11T07:27:14;97094.72;;;12.26;58.72
47556;BME280;33291;46.222;26.460;2023-05-11T07:29:40;97089.91;;;12.21;59.43
47556;BME280;33291;46.222;26.460;2023-05-11T07:32:05;97093.50;;;12.40;59.28
47556;BME280;33291;46.222;26.460;2023-05-11T07:34:31;97084.97;;;12.38;58.93
47556;BME280;33291;46.222;26.460;2023-05-11T07:36:57;97090.63;;;12.43;58.74
47556;BME280;33291;46.222;26.460;2023-05-11T07:39:22;97084.00;;;12.39;59.00
47556;BME280;33291;46.222;26.460;2023-05-11T07:41:48;97094.59;;;12.57;57.62
47556;BME280;33291;46.222;26.460;2023-05-11T07:44:13;97085.97;;;12.56;57.20
47556;BME280;33291;46.222;26.460;2023-05-11T07:46:39;97097.25;;;12.67;57.32
47556;BME280;33291;46.222;26.460;2023-05-11T07:49:05;97080.19;;;12.62;57.62
47556;BME280;33291;46.222;26.460;2023-05-11T07:51:30;97095.47;;;12.77;57.33
47556;BME280;33291;46.222;26.460;2023-05-11T07:53:56;97096.97;;;12.89;55.54
47556;BME280;33291;46.222;26.460;2023-05-11T07:56:21;97068.06;;;12.81;54.90
47556;BME280;33291;46.222;26.460;2023-05-11T07:58:47;97092.53;;;13.00;54.05
47556;BME280;33291;46.222;26.460;2023-05-11T08:01:12;97092.16;;;13.04;54.09
47556;BME280;33291;46.222;26.460;2023-05-11T08:03:38;97080.84;;;13.04;55.05
47556;BME280;33291;46.222;26.460;2023-05-11T08:06:04;97087.28;;;13.19;55.34
47556;BME280;33291;46.222;26.460;2023-05-11T08:08:29;97080.25;;;13.29;53.91
47556;BME280;33291;46.222;26.460;2023-05-11T08:10:55;97087.56;;;13.36;53.59
47556;BME280;33291;46.222;26.460;2023-05-11T08:13:21;97083.69;;;13.40;53.95
47556;BME280;33291;46.222;26.460;2023-05-11T08:15:46;97093.31;;;13.49;53.49
47556;BME280;33291;46.222;26.460;2023-05-11T08:18:12;97095.72;;;13.60;52.57
47556;BME280;33291;46.222;26.460;2023-05-11T08:20:38;97080.19;;;13.59;51.48
47556;BME280;33291;46.222;26.460;2023-05-11T08:23:06;97087.13;;;13.78;50.71
47556;BME280;33291;46.222;26.460;2023-05-11T08:25:32;97079.56;;;13.75;50.97
47556;BME280;33291;46.222;26.460;2023-05-11T08:27:59;97093.03;;;13.80;50.44
47556;BME280;33291;46.222;26.460;2023-05-11T08:30:24;97090.13;;;13.83;49.37
47556;BME280;33291;46.222;26.460;2023-05-11T08:32:50;97076.09;;;13.84;50.21
47556;BME280;33291;46.222;26.460;2023-05-11T08:35:15;97078.53;;;13.95;48.92
47556;BME280;33291;46.222;26.460;2023-05-11T08:37:41;97078.25;;;13.98;49.82
47556;BME280;33291;46.222;26.460;2023-05-11T08:40:09;97079.28;;;14.06;49.23
47556;BME280;33291;46.222;26.460;2023-05-11T08:42:35;97073.44;;;14.12;50.06
47556;BME280;33291;46.222;26.460;2023-05-11T08:45:05;97090.69;;;14.14;48.89
47556;BME280;33291;46.222;26.460;2023-05-11T08:47:30;97064.69;;;14.03;47.89
47556;BME280;33291;46.222;26.460;2023-05-11T08:49:56;97062.22;;;14.01;48.95
47556;BME280;33291;46.222;26.460;2023-05-11T08:52:22;97074.75;;;14.08;48.37
47556;BME280;33291;46.222;26.460;2023-05-11T08:54:49;97072.13;;;14.08;48.72
47556;BME280;33291;46.222;26.460;2023-05-11T08:57:15;97072.13;;;14.08;47.60
47556;BME280;33291;46.222;26.460;2023-05-11T08:59:43;97064.56;;;14.22;47.44
47556;BME280;33291;46.222;26.460;2023-05-11T09:04:41;97066.88;;;14.08;46.26
47556;BME280;33291;46.222;26.460;2023-05-11T09:07:08;97055.91;;;13.94;47.72
47556;BME280;33291;46.222;26.460;2023-05-11T09:09:34;97052.72;;;14.00;48.54
47556;BME280;33291;46.222;26.460;2023-05-11T09:12:00;97075.09;;;14.13;45.74
47556;BME280;33291;46.222;26.460;2023-05-11T09:14:26;97066.03;;;14.07;44.34
47556;BME280;33291;46.222;26.460;2023-05-11T09:16:51;97061.16;;;13.94;45.30
47556;BME280;33291;46.222;26.460;2023-05-11T09:19:17;97061.81;;;13.96;44.75
47556;BME280;33291;46.222;26.460;2023-05-11T09:21:43;97067.78;;;13.89;45.49
47556;BME280;33291;46.222;26.460;2023-05-11T09:24:12;97066.13;;;13.88;44.50
47556;BME280;33291;46.222;26.460;2023-05-11T09:26:37;97067.28;;;13.85;45.44
47556;BME280;33291;46.222;26.460;2023-05-11T09:29:03;97057.84;;;13.92;45.55
47556;BME280;33291;46.222;26.460;2023-05-11T09:31:39;97058.69;;;13.93;44.31
47556;BME280;33291;46.222;26.460;2023-05-11T09:36:39;97065.00;;;14.00;45.63
47556;BME280;33291;46.222;26.460;2023-05-11T09:39:04;97056.22;;;13.91;44.21
47556;BME280;33291;46.222;26.460;2023-05-11T09:41:30;97052.66;;;13.82;45.30
47556;BME280;33291;46.222;26.460;2023-05-11T09:44:12;97036.31;;;13.71;45.22
47556;BME280;33291;46.222;26.460;2023-05-11T09:46:41;97053.53;;;13.73;45.75
47556;BME280;33291;46.222;26.460;2023-05-11T09:49:07;97049.41;;;13.71;46.05
47556;BME280;33291;46.222;26.460;2023-05-11T09:51:35;97043.66;;;13.67;45.79
47556;BME280;33291;46.222;26.460;2023-05-11T09:54:15;97042.00;;;13.66;45.96
47556;BME280;33291;46.222;26.460;2023-05-11T09:56:49;97026.06;;;13.59;45.96
47556;BME280;33291;46.222;26.460;2023-05-11T09:59:17;97047.09;;;13.67;46.07
47556;BME280;33291;46.222;26.460;2023-05-11T10:02:24;97038.94;;;13.71;45.61
47556;BME280;33291;46.222;26.460;2023-05-11T10:04:52;97027.28;;;13.65;44.83
47556;BME280;33291;46.222;26.460;2023-05-11T10:09:51;97024.66;;;13.65;44.04
47556;BME280;33291;46.222;26.460;2023-05-11T10:12:20;97004.72;;;13.54;43.94
47556;BME280;33291;46.222;26.460;2023-05-11T10:14:46;97017.78;;;13.54;43.09
47556;BME280;33291;46.222;26.460;2023-05-11T10:17:13;97024.69;;;13.55;43.95
47556;BME280;33291;46.222;26.460;2023-05-11T10:19:40;97023.72;;;13.56;43.96
47556;BME280;33291;46.222;26.460;2023-05-11T10:22:06;97032.53;;;13.55;43.55
47556;BME280;33291;46.222;26.460;2023-05-11T10:24:32;97025.50;;;13.56;44.38
47556;BME280;33291;46.222;26.460;2023-05-11T10:26:59;97032.53;;;13.55;44.11
47556;BME280;33291;46.222;26.460;2023-05-11T10:29:25;97018.50;;;13.56;44.07
47556;BME280;33291;46.222;26.460;2023-05-11T10:31:53;97027.00;;;13.58;43.29
47556;BME280;33291;46.222;26.460;2023-05-11T10:34:19;97031.97;;;13.61;43.14
47556;BME280;33291;46.222;26.460;2023-05-11T10:36:47;97024.09;;;13.61;43.60
47556;BME280;33291;46.222;26.460;2023-05-11T10:39:14;97020.53;;;13.62;42.66
47556;BME280;33291;46.222;26.460;2023-05-11T10:42:03;97024.38;;;13.68;42.83
47556;BME280;33291;46.222;26.460;2023-05-11T11:01:37;97024.88;;;13.99;42.04
47556;BME280;33291;46.222;26.460;2023-05-11T11:04:08;97016.41;;;14.06;41.09
47556;BME280;33291;46.222;26.460;2023-05-11T11:06:36;97010.00;;;14.00;41.79
47556;BME280;33291;46.222;26.460;2023-05-11T11:09:04;97010.50;;;14.03;42.31
47556;BME280;33291;46.222;26.460;2023-05-11T11:11:36;97018.06;;;14.07;42.68
47556;BME280;33291;46.222;26.460;2023-05-11T11:14:04;97011.44;;;14.12;42.43
47556;BME280;33291;46.222;26.460;2023-05-11T11:16:33;97027.50;;;14.17;43.13
47556;BME280;33291;46.222;26.460;2023-05-11T11:21:59;97006.22;;;14.02;42.11
47556;BME280;33291;46.222;26.460;2023-05-11T11:27:04;96996.81;;;14.10;42.64
47556;BME280;33291;46.222;26.460;2023-05-11T11:29:30;97005.34;;;14.30;42.15
47556;BME280;33291;46.222;26.460;2023-05-11T11:34:46;97009.19;;;14.35;42.48
47556;BME280;33291;46.222;26.460;2023-05-11T11:37:13;97010.00;;;14.36;42.02
47556;BME280;33291;46.222;26.460;2023-05-11T11:42:38;97002.69;;;14.39;41.97
47556;BME280;33291;46.222;26.460;2023-05-11T11:45:28;97005.28;;;14.39;42.46
47556;BME280;33291;46.222;26.460;2023-05-11T11:48:10;97008.81;;;14.30;42.74
47556;BME280;33291;46.222;26.460;2023-05-11T11:50:38;97005.81;;;14.25;42.52
47556;BME280;33291;46.222;26.460;2023-05-11T11:53:04;97003.47;;;14.22;42.49
47556;BME280;33291;46.222;26.460;2023-05-11T11:55:48;96986.13;;;14.03;42.51
47556;BME280;33291;46.222;26.460;2023-05-11T12:01:15;97002.34;;;14.07;41.76
47556;BME280;33291;46.222;26.460;2023-05-11T12:03:42;97002.13;;;14.00;42.64
47556;BME280;33291;46.222;26.460;2023-05-11T12:06:09;97008.19;;;14.00;42.51
47556;BME280;33291;46.222;26.460;2023-05-11T12:08:37;97008.84;;;14.02;42.18
47556;BME280;33291;46.222;26.460;2023-05-11T12:11:03;96991.13;;;13.96;42.31
47556;BME280;33291;46.222;26.460;2023-05-11T12:13:31;96999.50;;;14.00;42.33
47556;BME280;33291;46.222;26.460;2023-05-11T12:16:13;96994.47;;;13.89;41.69
47556;BME280;33291;46.222;26.460;2023-05-11T12:18:41;96997.47;;;13.94;43.96
47556;BME280;33291;46.222;26.460;2023-05-11T12:21:18;97003.84;;;13.91;43.04
47556;BME280;33291;46.222;26.460;2023-05-11T12:24:00;96975.22;;;13.80;41.91
47556;BME280;33291;46.222;26.460;2023-05-11T12:26:28;96999.97;;;13.95;41.93
47556;BME280;33291;46.222;26.460;2023-05-11T12:29:07;96979.13;;;13.94;41.12
47556;BME280;33291;46.222;26.460;2023-05-11T12:31:41;96983.19;;;13.88;40.96
47556;BME280;33291;46.222;26.460;2023-05-11T12:34:11;96992.22;;;13.94;41.54
47556;BME280;33291;46.222;26.460;2023-05-11T12:36:38;96990.59;;;13.93;41.77
47556;BME280;33291;46.222;26.460;2023-05-11T12:39:03;96992.53;;;13.91;41.87
47556;BME280;33291;46.222;26.460;2023-05-11T12:41:29;96984.16;;;13.87;41.36
47556;BME280;33291;46.222;26.460;2023-05-11T12:43:54;96978.13;;;13.77;42.12
47556;BME280;33291;46.222;26.460;2023-05-11T12:46:21;96986.28;;;13.74;41.69
47556;BME280;33291;46.222;26.460;2023-05-11T12:48:49;96990.03;;;13.71;41.85
47556;BME280;33291;46.222;26.460;2023-05-11T12:54:08;96994.34;;;13.62;42.00
47556;BME280;33291;46.222;26.460;2023-05-11T12:56:44;96977.56;;;13.55;43.42
47556;BME280;33291;46.222;26.460;2023-05-11T12:59:27;96985.06;;;13.50;42.44
47556;BME280;33291;46.222;26.460;2023-05-11T13:01:53;96984.75;;;13.53;42.56
47556;BME280;33291;46.222;26.460;2023-05-11T13:04:29;96988.03;;;13.55;43.33
47556;BME280;33291;46.222;26.460;2023-05-11T13:06:55;96967.97;;;13.46;44.41
47556;BME280;33291;46.222;26.460;2023-05-11T13:09:24;96988.03;;;13.55;43.69
47556;BME280;33291;46.222;26.460;2023-05-11T13:12:10;96981.16;;;13.54;44.97
47556;BME280;33291;46.222;26.460;2023-05-11T13:14:36;96979.25;;;13.46;43.01
47556;BME280;33291;46.222;26.460;2023-05-11T13:17:02;96974.19;;;13.45;42.99
47556;BME280;33291;46.222;26.460;2023-05-11T13:19:29;96978.59;;;13.44;45.21
47556;BME280;33291;46.222;26.460;2023-05-11T13:21:55;96973.78;;;13.40;45.35
47556;BME280;33291;46.222;26.460;2023-05-11T13:24:22;96980.41;;;13.44;45.16
47556;BME280;33291;46.222;26.460;2023-05-11T13:26:48;96986.31;;;13.46;47.03
47556;BME280;33291;46.222;26.460;2023-05-11T13:29:15;96978.06;;;13.41;47.24
47556;BME280;33291;46.222;26.460;2023-05-11T13:31:45;96967.44;;;13.32;44.45
47556;BME280;33291;46.222;26.460;2023-05-11T13:34:11;96966.38;;;13.35;45.63
47556;BME280;33291;46.222;26.460;2023-05-11T13:36:37;96975.75;;;13.28;47.28
47556;BME280;33291;46.222;26.460;2023-05-11T13:39:03;96978.22;;;13.29;47.89
47556;BME280;33291;46.222;26.460;2023-05-11T13:41:28;96970.78;;;13.25;47.86
47556;BME280;33291;46.222;26.460;2023-05-11T13:43:54;96975.75;;;13.28;47.75
47556;BME280;33291;46.222;26.460;2023-05-11T13:46:19;96973.84;;;13.20;48.41
47556;BME280;33291;46.222;26.460;2023-05-11T13:48:46;96976.59;;;13.19;48.87
47556;BME280;33291;46.222;26.460;2023-05-11T13:51:12;96959.81;;;13.11;49.43